Pula, Croatia
Current Conditions -  °F | °C
As of 12:00 PM on Friday 19 Dec 2014 (Local Time) from LDPL Reporting Station
Scattered Clouds Scattered Clouds  
Wind Chill: 54°   Ceiling: Unl
Heat Index: 54°   Visibility: 4mi
Dew Point: 52°   Wind: 1mph
Humidity: 94%   Direction: NA
Pressure: 30.21"   Gusts: NA
Location:  44.88°N, 13.84°E
Report Text: LDPL 191000Z VRB01KT 7000 FEW017 SCT023 12/11 Q1023 NOSIG
Loading
Personal Weather Stations






























Interactive Weather Map New forecast layout! Learn more

10-Day Weather Forecast

Advertisements
Track Severe Weather on mobile